Nearby METAR Reports

 

KSJC - San Jose, California, USA
Distance from station: NE 14km
Updated: 19/04/2021 10:53
Clear
Clear
 Wind from NNW
Wind: NNW 11 km/h
Temperature: 16°C
Dew Point: 8°C
Humidity: 59%
Barometer: 1020.3 hPa
Clouds: Clear
Visibility: 16 km
2021/04/19 17:53 KSJC 191753Z 33006KT 10SM CLR 16/08 A3013 RMK AO2 SLP201 T01560083 10156 20094 58005
KNUQ - Moffett Nas/Mtn, California, USA
Distance from station: N 14km
Updated: 13/04/2021 15:40
NOT Current

 
2021/04/13 22:40 KNUQ 132240Z AUTO RMK AO2 PNO PWINO TSNO
 
KPAO - Palo Alto, California, USA
Distance from station: NNW 23km
Updated: 19/04/2021 10:47
Few Clouds
Few Clouds
 Wind from N
Wind: N 11 km/h
Temperature: 14°C
Dew Point: 9°C
Humidity: 72%
Barometer: 1020.7 hPa
Clouds: Few Clouds
Visibility: 16 km
Cloud details: Few Clouds 457 m
2021/04/19 17:47 KPAO 191747Z 35006KT 10SM FEW015 14/09 A3014
KRHV - San Jose/Reid, California, USA
Distance from station: ENE 19km
Updated: 19/04/2021 10:47
Clear
Clear
 Wind from calm
Wind: Calm
Temperature: 17°C
Dew Point: 8°C
Humidity: 56%
Barometer: 1020.3 hPa
Clouds: Clear
Visibility: 16 km
2021/04/19 17:47 KRHV 191747Z 00000KT 10SM SKC 17/08 A3013 HZ
 
KOAK - Oakland, California, USA
Distance from station: NNW 50km
Updated: 19/04/2021 10:53
Mostly cloudy
Mostly cloudy
 Wind from W
Wind: W 9 km/h
Temperature: 13°C
Dew Point: 8°C
Humidity: 72%
Barometer: 1021.3 hPa
Clouds: Mostly cloudy
Visibility: 16 km
Cloud details: Mostly cloudy 305 m
Mostly cloudy 427 m
2021/04/19 17:53 KOAK 191753Z 26005KT 10SM BKN010 BKN014 13/08 A3016 RMK AO2 SLP211 T01280083 10128 20100 53002
KSQL - San Carlos Airpo, California, USA
Distance from station: NW 34km
Updated: 19/04/2021 09:47
NOT Current
Partly cloudy
Partly cloudy
 Wind from W
Wind: W 13 km/h
Temperature: 13°C
Dew Point: 8°C
Humidity: 72%
Barometer: 1021 hPa
Clouds: Partly cloudy
Visibility: 16 km
Cloud details: Partly cloudy 457 m
2021/04/19 16:47 KSQL 191647Z 26007KT 10SM SCT015 13/08 A3015
 
KSFO - San Francisco, California, USA
Distance from station: NW 49km
Updated: 19/04/2021 10:56
Few Clouds
Few Clouds
 Wind from WNW
Wind: WNW 20 km/h
Temperature: 14°C
Dew Point: 8°C
Humidity: 67%
Barometer: 1020.7 hPa
Clouds: Few Clouds
Visibility: 14 km
Cloud details: Few Clouds 274 m
Few Clouds 396 m
2021/04/19 17:56 KSFO 191756Z 29011KT 9SM FEW009 FEW013 14/08 A3014 RMK AO2 SLP206 T01440078 10144 20106 53000
KE16 - San Martin, California, USA
Distance from station: ESE 43km
Updated: 19/04/2021 11:15
Clear
Clear
 Wind from S
Wind: S 9 km/h
Temperature: 17°C
Dew Point: 7°C
Humidity: 52%
Barometer: 1020.7 hPa
Clouds: Clear
Visibility: 16 km
2021/04/19 18:15 KE16 191815Z AUTO 17005KT 10SM CLR 17/07 A3014 RMK AO2
 
KWVI - Watsonville, California, USA
Distance from station: SSE 44km
Updated: 19/04/2021 10:53
Mostly cloudy
Mostly cloudy
 Wind from calm
Wind: Calm
Temperature: 12°C
Dew Point: 8°C
Humidity: 77%
Barometer: 1021 hPa
Clouds: Mostly cloudy
Visibility: 16 km
Cloud details: Mostly cloudy 305 m
2021/04/19 17:53 KWVI 191753Z AUTO 00000KT 10SM BKN010 12/08 A3015 RMK AO2 SLP209 T01220083 10128 20083 58001
KHAF - Half Moon Bay, California, USA
Distance from station: WNW 50km
Updated: 19/04/2021 11:15
Mist, Partly cloudy
Mist, Partly cloudy
 Wind from NW
Wind: NW 15 km/h
Temperature: 10°C
Wind Chill: 8°C
Dew Point: 8°C
Humidity: 88%
Barometer: 1022 hPa
Summary: Mist
Clouds: Partly cloudy
Visibility: 6 km
Cloud details: Partly cloudy 244 m
2021/04/19 18:15 KHAF 191815Z AUTO 32008KT 4SM BR SCT008 10/08 A3018 RMK AO2
 
KHWD - Hayward, California, USA
Distance from station: N 44km
Updated: 19/04/2021 10:54
Few Clouds
Few Clouds
 Wind from WNW
Wind: WNW 11 km/h
Temperature: 13°C
Dew Point: 8°C
Humidity: 72%
Barometer: 1020.7 hPa
Clouds: Few Clouds
Visibility: 16 km
Cloud details: Few Clouds 396 m
2021/04/19 17:54 KHWD 191754Z AUTO 29006KT 10SM FEW013 13/08 A3014 RMK AO2 SLP217 T01280078 10128 20100 53001
KLVK - Livermore, California, USA
Distance from station: NNE 51km
Updated: 19/04/2021 10:53
Clear
Clear
 Wind from NW
Wind: NW 9 km/h
Temperature: 17°C
Dew Point: 8°C
Humidity: 56%
Barometer: 1019.3 hPa
Clouds: Clear
Visibility: 16 km
2021/04/19 17:53 KLVK 191753Z 32005KT 10SM CLR 17/08 A3010 RMK AO2 SLP191 T01720078 10172 20094 58004